createdAt,value
2023-05-06T00:00:50.992Z,98555.47
2023-05-06T00:03:17.206Z,98566.19
2023-05-06T00:05:43.387Z,98562.69
2023-05-06T00:08:09.521Z,98568.03
2023-05-06T00:10:35.614Z,98566.38
2023-05-06T00:13:01.748Z,98562.69
2023-05-06T00:15:30.131Z,98557.53
2023-05-06T00:17:57.652Z,98547.84
2023-05-06T00:20:23.765Z,98557.53
2023-05-06T00:22:49.920Z,98549.69
2023-05-06T00:25:16.048Z,98546.00
2023-05-06T00:27:42.149Z,98542.50
2023-05-06T00:30:08.252Z,98541.66
2023-05-06T00:32:34.384Z,98544.31
2023-05-06T00:35:00.771Z,98545.16
2023-05-06T00:37:26.934Z,98538.16
2023-05-06T00:39:53.084Z,98539.19
2023-05-06T00:42:19.191Z,98533.84
2023-05-06T00:44:45.330Z,98531.16
2023-05-06T00:47:11.434Z,98539.19
2023-05-06T00:49:37.547Z,98533.84
2023-05-06T00:52:03.664Z,98535.66
2023-05-06T00:54:29.862Z,98533.00
2023-05-06T00:56:56.048Z,98525.78
2023-05-06T00:59:22.645Z,98524.09
2023-05-06T01:01:48.731Z,98517.13
2023-05-06T01:04:14.833Z,98521.41
2023-05-06T01:06:40.965Z,98520.44
2023-05-06T01:09:07.078Z,98519.78
2023-05-06T01:11:33.180Z,98516.28
2023-05-06T01:13:59.288Z,98521.66
2023-05-06T01:16:25.470Z,98525.16
2023-05-06T01:18:51.614Z,98521.66
2023-05-06T01:21:17.746Z,98524.53
2023-05-06T01:23:43.846Z,98523.50
2023-05-06T01:26:09.944Z,98520.81
2023-05-06T01:28:36.563Z,98524.53
2023-05-06T01:31:02.681Z,98521.03
2023-05-06T01:33:28.870Z,98521.03
2023-05-06T01:35:55.040Z,98521.03
2023-05-06T01:38:21.117Z,98523.94
2023-05-06T01:40:47.212Z,98531.97
2023-05-06T01:43:13.349Z,98524.53
2023-05-06T01:45:39.444Z,98534.66
2023-05-06T01:48:05.552Z,98530.34
2023-05-06T01:50:32.065Z,98533.03
2023-05-06T01:52:58.160Z,98531.34
2023-05-06T01:55:24.244Z,98528.47
2023-05-06T01:57:50.347Z,98528.69
2023-05-06T02:00:16.436Z,98527.84
2023-05-06T02:02:42.719Z,98527.03
2023-05-06T02:05:09.185Z,98529.72
2023-05-06T02:07:35.493Z,98533.22
2023-05-06T02:10:01.620Z,98532.41
2023-05-06T02:12:27.734Z,98532.41
2023-05-06T02:14:53.815Z,98534.25
2023-05-06T02:17:19.910Z,98525.38
2023-05-06T02:19:46.045Z,98534.47
2023-05-06T02:22:12.160Z,98531.78
2023-05-06T02:24:38.255Z,98538.19
2023-05-06T02:27:04.377Z,98534.47
2023-05-06T02:29:30.495Z,98539.00
2023-05-06T02:31:56.669Z,98532.84
2023-05-06T02:34:22.817Z,98538.19
2023-05-06T02:36:48.908Z,98534.66
2023-05-06T02:39:15.006Z,98533.84
2023-05-06T02:41:41.121Z,98536.53
2023-05-06T02:44:07.215Z,98528.50
2023-05-06T02:46:33.316Z,98528.50
2023-05-06T02:48:59.426Z,98522.53
2023-05-06T02:51:25.522Z,98522.53
2023-05-06T02:53:51.624Z,98513.66
2023-05-06T02:56:17.765Z,98519.84
2023-05-06T02:58:43.868Z,98521.72
2023-05-06T03:01:10.008Z,98527.88
2023-05-06T03:03:36.346Z,98529.75
2023-05-06T03:06:02.455Z,98531.59
2023-05-06T03:08:28.553Z,98526.25
2023-05-06T03:10:54.681Z,98537.78
2023-05-06T03:13:20.799Z,98524.59
2023-05-06T03:15:46.904Z,98528.31
2023-05-06T03:18:13.037Z,98522.97
2023-05-06T03:20:39.123Z,98532.63
2023-05-06T03:23:05.235Z,98532.63
2023-05-06T03:25:31.372Z,98522.16
2023-05-06T03:27:57.485Z,98531.00
2023-05-06T03:30:23.596Z,98529.38
2023-05-06T03:32:49.743Z,98525.84
2023-05-06T03:35:15.857Z,98529.38
2023-05-06T03:37:41.958Z,98535.75
2023-05-06T03:40:08.079Z,98533.88
2023-05-06T03:42:34.180Z,98530.38
2023-05-06T03:45:00.281Z,98526.88
2023-05-06T03:47:26.416Z,98526.88
2023-05-06T03:49:52.539Z,98529.56
2023-05-06T03:52:18.645Z,98535.75
2023-05-06T03:54:44.751Z,98538.66
2023-05-06T03:57:10.833Z,98536.78
2023-05-06T03:59:36.922Z,98545.84
2023-05-06T04:02:03.094Z,98543.16
2023-05-06T04:04:29.299Z,98546.69
2023-05-06T04:06:55.427Z,98550.38
2023-05-06T04:09:21.536Z,98547.72
2023-05-06T04:11:47.679Z,98550.38
2023-05-06T04:14:13.784Z,98554.13
2023-05-06T04:16:40.019Z,98555.97
2023-05-06T04:19:06.697Z,98549.78
2023-05-06T04:21:32.891Z,98547.94
2023-05-06T04:23:59.019Z,98553.31
2023-05-06T04:26:25.121Z,98550.63
2023-05-06T04:28:51.228Z,98551.63
2023-05-06T04:31:17.878Z,98550.81
2023-05-06T04:33:44.008Z,98555.13
2023-05-06T04:36:10.117Z,98551.63
2023-05-06T04:38:36.247Z,98551.84
2023-05-06T04:41:02.342Z,98554.53
2023-05-06T04:43:28.428Z,98548.34
2023-05-06T04:45:54.592Z,98552.69
2023-05-06T04:48:20.718Z,98551.03
2023-05-06T04:50:46.844Z,98554.75
2023-05-06T04:53:12.944Z,98559.06
2023-05-06T04:55:39.038Z,98546.72
2023-05-06T04:58:05.122Z,98559.28
2023-05-06T05:00:31.288Z,98556.63
2023-05-06T05:02:57.471Z,98561.13
2023-05-06T05:05:23.645Z,98555.78
2023-05-06T05:07:49.898Z,98563.00
2023-05-06T05:10:15.988Z,98563.00
2023-05-06T05:12:42.180Z,98568.34
2023-05-06T05:15:08.495Z,98565.66
2023-05-06T05:17:34.846Z,98570.22
2023-05-06T05:20:00.993Z,98572.88
2023-05-06T05:22:27.091Z,98575.56
2023-05-06T05:24:53.186Z,98579.06
2023-05-06T05:27:19.302Z,98577.44
2023-05-06T05:29:45.420Z,98571.25
2023-05-06T05:32:11.502Z,98586.28
2023-05-06T05:34:37.596Z,98580.94
2023-05-06T05:37:03.696Z,98586.47
2023-05-06T05:39:29.799Z,98584.66
2023-05-06T05:41:55.884Z,98587.34
2023-05-06T05:44:22.003Z,98588.34
2023-05-06T05:46:48.500Z,98580.31
2023-05-06T05:49:14.620Z,98590.22
2023-05-06T05:51:40.733Z,98596.38
2023-05-06T05:54:06.836Z,98591.03
2023-05-06T05:56:32.946Z,98592.06
2023-05-06T05:58:59.102Z,98589.41
2023-05-06T06:01:25.206Z,98599.25
2023-05-06T06:03:51.613Z,98600.13
2023-05-06T06:06:17.954Z,98599.25
2023-05-06T06:08:44.044Z,98596.81
2023-05-06T06:11:10.184Z,98606.47
2023-05-06T06:13:36.332Z,98605.47
2023-05-06T06:16:02.495Z,98606.47
2023-05-06T06:18:29.039Z,98604.63
2023-05-06T06:20:55.172Z,98607.31
2023-05-06T06:23:21.257Z,98608.16
2023-05-06T06:25:47.351Z,98601.13
2023-05-06T06:28:13.453Z,98609.16
2023-05-06T06:30:39.559Z,98610.81
2023-05-06T06:33:05.705Z,98608.34
2023-05-06T06:35:31.853Z,98608.34
2023-05-06T06:37:57.979Z,98616.19
2023-05-06T06:40:24.069Z,98613.72
2023-05-06T06:42:50.228Z,98614.53
2023-05-06T06:45:16.318Z,98609.16
2023-05-06T06:47:42.460Z,98609.97
2023-05-06T06:50:08.611Z,98615.34
2023-05-06T06:52:34.712Z,98608.34
2023-05-06T06:55:00.789Z,98618.00
2023-05-06T06:57:26.903Z,98611.84
2023-05-06T06:59:53.006Z,98605.66
2023-05-06T07:02:19.153Z,98606.47
2023-05-06T07:04:45.348Z,98611.84
2023-05-06T07:07:11.555Z,98615.34
2023-05-06T07:09:39.528Z,98611.03
2023-05-06T07:12:06.538Z,98609.16
2023-05-06T07:14:32.650Z,98609.97
2023-05-06T07:16:58.781Z,98615.34
2023-05-06T07:19:24.910Z,98614.53
2023-05-06T07:21:51.070Z,98612.66
2023-05-06T07:24:17.187Z,98616.38
2023-05-06T07:26:43.314Z,98622.56
2023-05-06T07:29:09.401Z,98618.88
2023-05-06T07:31:35.562Z,98621.53
2023-05-06T07:34:01.767Z,98610.81
2023-05-06T07:36:27.860Z,98615.34
2023-05-06T07:38:53.987Z,98615.13
2023-05-06T07:41:20.121Z,98620.50
2023-05-06T07:43:46.247Z,98619.69
2023-05-06T07:46:12.386Z,98626.66
2023-05-06T07:48:40.168Z,98620.50
2023-05-06T07:51:06.311Z,98623.19
2023-05-06T07:53:32.413Z,98623.19
2023-05-06T07:55:58.529Z,98629.34
2023-05-06T07:58:24.839Z,98622.16
2023-05-06T08:00:50.997Z,98622.16
2023-05-06T08:03:17.267Z,98624.84
2023-05-06T08:05:43.573Z,98625.66
2023-05-06T08:08:09.672Z,98633.69
2023-05-06T08:10:35.805Z,98633.69
2023-05-06T08:13:01.985Z,98634.50
2023-05-06T08:15:28.116Z,98637.19
2023-05-06T08:17:54.237Z,98631.84
2023-05-06T08:20:20.378Z,98632.66
2023-05-06T08:22:46.481Z,98644.19
2023-05-06T08:25:12.831Z,98636.16
2023-05-06T08:27:39.150Z,98636.16
2023-05-06T08:30:05.253Z,98643.16
2023-05-06T08:32:31.410Z,98642.34
2023-05-06T08:34:57.531Z,98640.50
2023-05-06T08:37:23.632Z,98642.13
2023-05-06T08:39:49.799Z,98645.03
2023-05-06T08:42:15.890Z,98638.63
2023-05-06T08:44:42.011Z,98640.25
2023-05-06T08:47:08.113Z,98642.13
2023-05-06T08:49:34.232Z,98637.56
2023-05-06T08:52:00.341Z,98637.56
2023-05-06T08:54:26.499Z,98642.94
2023-05-06T08:56:52.638Z,98629.53
2023-05-06T08:59:18.735Z,98640.06
2023-05-06T09:01:44.945Z,98636.56
2023-05-06T09:04:11.118Z,98635.50
2023-05-06T09:06:37.228Z,98626.66
2023-05-06T09:09:03.343Z,98636.38
2023-05-06T09:11:29.523Z,98638.00
2023-05-06T09:13:55.662Z,98639.84
2023-05-06T09:16:22.329Z,98640.69
2023-05-06T09:18:48.431Z,98639.84
2023-05-06T09:21:14.518Z,98638.00
2023-05-06T09:23:40.656Z,98638.81
2023-05-06T09:26:06.747Z,98638.81
2023-05-06T09:28:32.866Z,98634.28
2023-05-06T09:30:59.024Z,98629.75
2023-05-06T09:33:25.149Z,98628.91
2023-05-06T09:35:51.252Z,98627.06
2023-05-06T09:38:17.379Z,98624.41
2023-05-06T09:40:43.475Z,98625.22
2023-05-06T09:43:09.564Z,98622.53
2023-05-06T09:45:35.671Z,98628.50
2023-05-06T09:48:01.813Z,98626.84
2023-05-06T09:50:27.952Z,98625.00
2023-05-06T09:52:54.071Z,98622.31
2023-05-06T09:55:20.165Z,98617.78
2023-05-06T09:57:46.258Z,98620.47
2023-05-06T10:00:12.564Z,98613.25
2023-05-06T10:02:38.929Z,98615.94
2023-05-06T10:05:05.489Z,98610.34
2023-05-06T10:07:31.747Z,98615.69
2023-05-06T10:09:57.854Z,98610.34
2023-05-06T10:12:23.996Z,98610.34
2023-05-06T10:14:50.120Z,98605.81
2023-05-06T10:17:16.220Z,98605.81
2023-05-06T10:19:42.310Z,98611.19
2023-05-06T10:22:08.541Z,98607.47
2023-05-06T10:24:34.640Z,98610.97
2023-05-06T10:27:00.743Z,98610.13
2023-05-06T10:29:26.868Z,98603.75
2023-05-06T10:31:53.024Z,98600.25
2023-05-06T10:34:19.140Z,98603.75
2023-05-06T10:36:45.251Z,98599.22
2023-05-06T10:39:11.341Z,98595.72
2023-05-06T10:41:37.496Z,98599.22
2023-05-06T10:44:03.632Z,98590.13
2023-05-06T10:46:29.813Z,98583.13
2023-05-06T10:48:55.925Z,98584.78
2023-05-06T10:51:22.175Z,98590.94
2023-05-06T10:53:48.274Z,98592.81
2023-05-06T10:56:14.383Z,98591.78
2023-05-06T10:58:40.501Z,98585.59
2023-05-06T11:01:06.663Z,98587.25
2023-05-06T11:03:32.798Z,98582.72
2023-05-06T11:05:59.062Z,98580.03
2023-05-06T11:08:25.168Z,98582.72
2023-05-06T11:10:51.346Z,98582.72
2023-05-06T11:13:17.648Z,98580.03
2023-05-06T11:15:43.815Z,98581.91
2023-05-06T11:18:09.921Z,98572.59
2023-05-06T11:20:36.022Z,98570.94
2023-05-06T11:23:02.118Z,98577.97
2023-05-06T11:25:28.218Z,98570.75
2023-05-06T11:27:54.327Z,98564.56
2023-05-06T11:30:20.461Z,98567.25
2023-05-06T11:32:46.669Z,98572.59
2023-05-06T11:35:12.838Z,98565.38
2023-05-06T11:37:39.005Z,98565.38
2023-05-06T11:40:05.126Z,98574.25
2023-05-06T11:42:31.243Z,98566.19
2023-05-06T11:44:57.389Z,98571.56
2023-05-06T11:47:23.511Z,98556.53
2023-05-06T11:49:49.652Z,98566.19
2023-05-06T11:52:15.763Z,98565.19
2023-05-06T11:54:41.921Z,98557.13
2023-05-06T11:57:08.098Z,98567.03
2023-05-06T11:59:34.201Z,98560.63
2023-05-06T12:02:00.312Z,98561.44
2023-05-06T12:04:26.466Z,98568.66
2023-05-06T12:06:52.555Z,98569.28
2023-05-06T12:09:18.654Z,98566.59
2023-05-06T12:11:45.092Z,98564.13
2023-05-06T12:14:11.253Z,98559.59
2023-05-06T12:16:37.441Z,98563.94
2023-05-06T12:19:03.615Z,98559.38
2023-05-06T12:21:29.715Z,98556.69
2023-05-06T12:23:55.807Z,98557.53
2023-05-06T12:26:22.412Z,98552.16
2023-05-06T12:28:48.520Z,98549.47
2023-05-06T12:31:14.667Z,98552.97
2023-05-06T12:33:40.796Z,98549.28
2023-05-06T12:36:06.915Z,98551.13
2023-05-06T12:38:33.026Z,98548.22
2023-05-06T12:40:59.161Z,98541.03
2023-05-06T12:43:25.272Z,98552.59
2023-05-06T12:45:51.383Z,98552.59
2023-05-06T12:48:17.513Z,98547.25
2023-05-06T12:50:43.619Z,98553.41
2023-05-06T12:53:09.741Z,98546.19
2023-05-06T12:55:35.874Z,98542.50
2023-05-06T12:58:01.974Z,98547.00
2023-05-06T13:00:28.069Z,98541.66
2023-05-06T13:02:54.257Z,98546.00
2023-05-06T13:05:20.396Z,98544.13
2023-05-06T13:07:46.489Z,98538.75
2023-05-06T13:10:12.866Z,98542.25
2023-05-06T13:12:39.282Z,98536.91
2023-05-06T13:15:05.426Z,98536.91
2023-05-06T13:17:31.569Z,98541.25
2023-05-06T13:19:57.680Z,98530.53
2023-05-06T13:22:23.759Z,98527.84
2023-05-06T13:24:49.875Z,98529.47
2023-05-06T13:27:15.967Z,98531.34
2023-05-06T13:29:42.069Z,98531.09
2023-05-06T13:32:09.114Z,98524.91
2023-05-06T13:34:35.338Z,98523.91
2023-05-06T13:37:01.456Z,98527.41
2023-05-06T13:39:27.830Z,98526.59
2023-05-06T13:41:53.967Z,98515.63
2023-05-06T13:44:20.076Z,98517.50
2023-05-06T13:46:46.517Z,98511.09
2023-05-06T13:49:12.688Z,98512.75
2023-05-06T13:51:38.933Z,98505.50
2023-05-06T13:54:05.222Z,98511.69
2023-05-06T13:56:31.347Z,98511.69
2023-05-06T13:58:57.464Z,98510.66
2023-05-06T14:01:23.697Z,98510.66
2023-05-06T14:03:49.843Z,98499.13
2023-05-06T14:06:15.944Z,98497.25
2023-05-06T14:08:42.074Z,98498.91
2023-05-06T14:11:08.157Z,98500.56
2023-05-06T14:13:34.276Z,98496.00
2023-05-06T14:16:00.464Z,98498.69
2023-05-06T14:18:26.757Z,98501.38
2023-05-06T14:20:52.908Z,98492.28
2023-05-06T14:23:19.014Z,98492.28
2023-05-06T14:25:45.111Z,98492.28
2023-05-06T14:28:11.241Z,98499.31
2023-05-06T14:30:37.374Z,98492.06
2023-05-06T14:33:03.542Z,98484.84
2023-05-06T14:35:29.677Z,98488.97
2023-05-06T14:37:55.933Z,98489.38
2023-05-06T14:40:22.023Z,98484.84
2023-05-06T14:42:48.114Z,98473.91
2023-05-06T14:45:14.225Z,98477.41
2023-05-06T14:47:40.334Z,98480.09
2023-05-06T14:50:06.491Z,98480.69
2023-05-06T14:52:32.598Z,98479.03
2023-05-06T14:54:58.721Z,98477.41
2023-05-06T14:57:24.818Z,98474.94
2023-05-06T14:59:50.946Z,98470.63
2023-05-06T15:02:17.052Z,98475.78
2023-05-06T15:04:43.154Z,98470.41
2023-05-06T15:07:09.270Z,98473.09
2023-05-06T15:09:35.378Z,98475.53
2023-05-06T15:12:01.481Z,98466.69
2023-05-06T15:14:27.584Z,98469.16
2023-05-06T15:16:53.803Z,98470.78
2023-05-06T15:19:19.950Z,98466.25
2023-05-06T15:21:46.068Z,98472.44
2023-05-06T15:24:12.174Z,98474.28
2023-05-06T15:26:38.293Z,98469.78
2023-05-06T15:29:04.432Z,98467.09
2023-05-06T15:31:30.566Z,98474.06
2023-05-06T15:33:58.847Z,98471.41
2023-05-06T15:36:26.567Z,98467.66
2023-05-06T15:38:52.665Z,98475.72
2023-05-06T15:41:18.804Z,98480.88
2023-05-06T15:43:44.912Z,98477.13
2023-05-06T15:46:11.059Z,98473.63
2023-05-06T15:48:37.213Z,98481.69
2023-05-06T15:51:03.827Z,98478.19
2023-05-06T15:53:30.206Z,98486.22
2023-05-06T15:56:03.547Z,98500.25
2023-05-06T15:58:38.064Z,98506.63
2023-05-06T16:01:04.190Z,98508.28
2023-05-06T16:03:30.350Z,98518.78
2023-05-06T16:05:56.597Z,98531.38
2023-05-06T16:08:22.698Z,98538.41
2023-05-06T16:10:48.809Z,98540.22
2023-05-06T16:13:15.011Z,98544.59
2023-05-06T16:15:41.153Z,98552.63
2023-05-06T16:18:07.265Z,98543.53
2023-05-06T16:20:33.394Z,98555.31
2023-05-06T16:22:59.745Z,98565.84
2023-05-06T16:25:25.873Z,98573.88
2023-05-06T16:27:51.994Z,98573.03
2023-05-06T16:30:18.114Z,98575.50
2023-05-06T16:32:44.551Z,98564.16
2023-05-06T16:35:10.785Z,98562.31
2023-05-06T16:37:36.888Z,98559.41
2023-05-06T16:40:03.006Z,98559.41
2023-05-06T16:42:29.672Z,98556.94
2023-05-06T16:44:55.765Z,98548.88
2023-05-06T16:47:22.014Z,98544.59
2023-05-06T16:49:48.311Z,98546.00
2023-05-06T16:52:14.393Z,98548.69
2023-05-06T16:54:40.490Z,98551.56
2023-05-06T16:57:06.588Z,98540.84
2023-05-06T16:59:32.983Z,98542.50
2023-05-06T17:01:59.119Z,98550.56
2023-05-06T17:04:25.256Z,98547.88
2023-05-06T17:06:51.404Z,98548.69
2023-05-06T17:09:17.492Z,98553.22
2023-05-06T17:11:43.604Z,98547.88
2023-05-06T17:14:09.698Z,98554.88
2023-05-06T17:16:35.905Z,98558.59
2023-05-06T17:19:02.319Z,98557.56
2023-05-06T17:21:28.457Z,98554.06
2023-05-06T17:23:54.626Z,98558.59
2023-05-06T17:26:20.763Z,98554.06
2023-05-06T17:28:46.866Z,98551.38
2023-05-06T17:31:12.969Z,98552.19
2023-05-06T17:33:39.085Z,98551.38
2023-05-06T17:36:05.201Z,98547.88
2023-05-06T17:38:31.293Z,98548.69
2023-05-06T17:40:57.457Z,98545.19
2023-05-06T17:43:23.568Z,98545.19
2023-05-06T17:45:49.719Z,98542.50
2023-05-06T17:48:15.919Z,98542.50
2023-05-06T17:50:42.005Z,98535.28
2023-05-06T17:53:08.121Z,98538.16
2023-05-06T17:55:34.299Z,98536.31
2023-05-06T17:58:00.409Z,98538.16
2023-05-06T18:00:26.501Z,98546.22
2023-05-06T18:02:52.688Z,98543.53
2023-05-06T18:05:18.899Z,98541.69
2023-05-06T18:07:44.993Z,98539.81
2023-05-06T18:10:11.133Z,98540.84
2023-05-06T18:12:37.476Z,98535.47
2023-05-06T18:15:03.833Z,98535.47
2023-05-06T18:17:30.023Z,98536.69
2023-05-06T18:19:56.186Z,98543.69
2023-05-06T18:22:22.288Z,98543.69
2023-05-06T18:24:48.397Z,98535.66
2023-05-06T18:27:14.501Z,98537.31
2023-05-06T18:29:40.600Z,98542.69
2023-05-06T18:32:06.861Z,98545.34
2023-05-06T18:34:33.060Z,98538.34
2023-05-06T18:36:59.144Z,98544.75
2023-05-06T18:39:25.258Z,98544.53
2023-05-06T18:41:51.360Z,98542.06
2023-05-06T18:44:17.441Z,98544.53
2023-05-06T18:46:43.542Z,98542.88
2023-05-06T18:49:09.650Z,98540.19
2023-05-06T18:51:35.757Z,98542.06
2023-05-06T18:54:01.870Z,98543.94
2023-05-06T18:56:28.077Z,98547.22
2023-05-06T18:58:54.218Z,98542.88
2023-05-06T19:01:20.366Z,98550.13
2023-05-06T19:03:46.515Z,98551.16
2023-05-06T19:06:12.697Z,98557.34
2023-05-06T19:08:38.826Z,98563.53
2023-05-06T19:11:04.947Z,98564.56
2023-05-06T19:13:31.086Z,98567.25
2023-05-06T19:15:57.198Z,98561.88
2023-05-06T19:18:23.290Z,98563.72
2023-05-06T19:20:49.387Z,98568.88
2023-05-06T19:23:15.494Z,98574.44
2023-05-06T19:25:41.574Z,98570.97
2023-05-06T19:28:07.659Z,98567.25
2023-05-06T19:30:33.812Z,98562.91
2023-05-06T19:32:59.995Z,98569.94
2023-05-06T19:35:26.200Z,98572.63
2023-05-06T19:37:52.343Z,98560.22
2023-05-06T19:40:18.457Z,98559.41
2023-05-06T19:42:44.560Z,98564.78
2023-05-06T19:45:10.964Z,98570.16
2023-05-06T19:47:37.301Z,98567.25
2023-05-06T19:50:03.432Z,98560.22
2023-05-06T19:52:29.595Z,98571.78
2023-05-06T19:54:55.709Z,98575.06
2023-05-06T19:57:21.815Z,98570.16
2023-05-06T19:59:47.921Z,98565.59
2023-05-06T20:02:14.017Z,98568.28
2023-05-06T20:04:40.123Z,98574.69
2023-05-06T20:07:06.246Z,98580.88
2023-05-06T20:09:32.333Z,98577.38
2023-05-06T20:11:58.593Z,98575.50
2023-05-06T20:14:24.740Z,98574.69
2023-05-06T20:16:50.821Z,98572.00
2023-05-06T20:19:16.917Z,98573.88
2023-05-06T20:21:43.021Z,98566.66
2023-05-06T20:24:09.129Z,98563.97
2023-05-06T20:26:35.263Z,98568.50
2023-05-06T20:29:01.392Z,98566.84
2023-05-06T20:31:27.539Z,98567.66
2023-05-06T20:33:53.675Z,98563.16
2023-05-06T20:36:19.828Z,98562.31
2023-05-06T20:38:45.909Z,98560.66
2023-05-06T20:41:12.004Z,98561.47
2023-05-06T20:43:38.130Z,98562.31
2023-05-06T20:46:04.265Z,98571.41
2023-05-06T20:48:30.368Z,98563.34
2023-05-06T20:50:56.488Z,98558.00
2023-05-06T20:53:22.586Z,98555.50
2023-05-06T20:55:48.745Z,98565.22
2023-05-06T20:58:15.351Z,98559.00
2023-05-06T21:00:41.458Z,98561.69
2023-05-06T21:03:07.651Z,98563.56
2023-05-06T21:05:33.936Z,98562.75
2023-05-06T21:08:00.050Z,98556.56
2023-05-06T21:10:26.153Z,98564.38
2023-05-06T21:12:52.307Z,98560.88
2023-05-06T21:15:18.425Z,98561.94
2023-05-06T21:17:44.827Z,98565.41
2023-05-06T21:20:11.085Z,98562.75
2023-05-06T21:22:37.175Z,98561.09
2023-05-06T21:25:03.261Z,98564.59
2023-05-06T21:27:29.543Z,98556.56
2023-05-06T21:29:55.649Z,98565.41
2023-05-06T21:32:21.782Z,98564.59
2023-05-06T21:34:47.966Z,98561.09
2023-05-06T21:37:14.058Z,98554.91
2023-05-06T21:39:40.153Z,98550.38
2023-05-06T21:42:06.275Z,98552.22
2023-05-06T21:44:32.373Z,98560.25
2023-05-06T21:46:58.488Z,98554.09
2023-05-06T21:49:24.968Z,98549.53
2023-05-06T21:51:51.108Z,98542.53
2023-05-06T21:54:17.266Z,98551.41
2023-05-06T21:56:43.404Z,98551.41
2023-05-06T21:59:09.506Z,98550.78
2023-05-06T22:01:35.676Z,98553.28
2023-05-06T22:04:01.991Z,98555.94
2023-05-06T22:06:28.179Z,98553.47
2023-05-06T22:08:54.257Z,98556.16
2023-05-06T22:11:20.358Z,98548.13
2023-05-06T22:13:46.462Z,98552.66
2023-05-06T22:16:12.588Z,98543.78
2023-05-06T22:18:38.777Z,98553.72
2023-05-06T22:21:04.892Z,98537.63
2023-05-06T22:23:30.986Z,98539.47
2023-05-06T22:25:58.515Z,98537.63
2023-05-06T22:28:25.274Z,98543.78
2023-05-06T22:30:51.387Z,98540.50
2023-05-06T22:33:17.505Z,98542.16
2023-05-06T22:35:43.605Z,98540.50
2023-05-06T22:38:09.725Z,98542.16
2023-05-06T22:40:35.880Z,98540.50
2023-05-06T22:43:02.006Z,98525.22
2023-05-06T22:45:28.140Z,98524.41
2023-05-06T22:47:54.322Z,98533.28
2023-05-06T22:50:20.454Z,98535.13
2023-05-06T22:52:46.547Z,98525.47
2023-05-06T22:55:13.425Z,98522.78
2023-05-06T22:57:39.636Z,98511.22
2023-05-06T23:00:05.723Z,98517.41
2023-05-06T23:02:32.309Z,98516.56
2023-05-06T23:04:58.434Z,98521.94
2023-05-06T23:07:24.605Z,98522.38
2023-05-06T23:09:50.753Z,98519.94
2023-05-06T23:12:16.956Z,98516.19
2023-05-06T23:14:43.066Z,98518.44
2023-05-06T23:17:09.327Z,98520.31
2023-05-06T23:19:35.506Z,98514.13
2023-05-06T23:22:01.629Z,98514.94
2023-05-06T23:24:27.767Z,98511.44
2023-05-06T23:26:54.011Z,98511.44
2023-05-06T23:29:20.188Z,98514.13
2023-05-06T23:31:46.534Z,98513.31
2023-05-06T23:34:12.685Z,98507.94
2023-05-06T23:36:38.825Z,98508.78
2023-05-06T23:39:05.052Z,98507.09
2023-05-06T23:41:31.216Z,98510.63
2023-05-06T23:43:57.396Z,98511.66
2023-05-06T23:46:23.600Z,98520.50
2023-05-06T23:48:49.806Z,98518.88
2023-05-06T23:51:15.978Z,98511.66
2023-05-06T23:53:42.217Z,98517.03
2023-05-06T23:56:08.423Z,98513.53
2023-05-06T23:58:34.645Z,98516.19
